WetterOnline ( https://www.wetteronline.ch )

Wetter aktuell Greifswald

Aktuelles Wetter: Greifswald (6m)

6-stündlich | Neueste Meldungen
Ortszeit Temperatur Wetter
Mo, 13.07. 20:00 18.6° C leicht bewölkt
Mo, 13.07. 14:00 19.4° C leicht bewölkt
Mo, 13.07. 8:00 14.9° C fast wolkenlos
Mo, 13.07. 2:00 12.4° C fast wolkenlos
So, 12.07. 20:00 16.3° C bewölkt
So, 12.07. 14:00 17.9° C wolkig
So, 12.07. 8:00 13.5° C fast wolkenlos
So, 12.07. 2:00 11.7° C fast wolkenlos
Ortszeit Temperatur Wetter
Mo, 13.07. 21:30 15.9° C leicht bewölkt
Mo, 13.07. 21:20 15.9° C bedeckt
Mo, 13.07. 21:10 16.4° C bedeckt
Mo, 13.07. 21:00 17.8° C leicht bewölkt
Mo, 13.07. 20:50 17.8° C bedeckt
Mo, 13.07. 20:40 18.0° C bewölkt
Mo, 13.07. 20:30 18.2° C leicht bewölkt
Mo, 13.07. 20:00 18.6° C leicht bewölkt
Mo, 13.07. 19:30 19.4° C leicht bewölkt
Mo, 13.07. 19:00 20.4° C leicht bewölkt
Mo, 13.07. 18:30 20.8° C leicht bewölkt
Ortszeit Relative Feuchte Sichtweite
Mo, 13.07. 20:00 58% >70 km
Mo, 13.07. 14:00 47% 50 km
Mo, 13.07. 8:00 79% 50 km
Mo, 13.07. 2:00 85% 65 km
So, 12.07. 20:00 65% 70 km
So, 12.07. 14:00 56% >70 km
So, 12.07. 8:00 74% 50 km
So, 12.07. 2:00 85% 50 km
Ortszeit Relative Feuchte Sichtweite
Mo, 13.07. 21:30 76% >70 km
Mo, 13.07. 21:20 76% -
Mo, 13.07. 21:10 73% -
Mo, 13.07. 21:00 62% 65 km
Mo, 13.07. 20:50 62% -
Mo, 13.07. 20:40 62% -
Mo, 13.07. 20:30 60% >70 km
Mo, 13.07. 20:00 58% >70 km
Mo, 13.07. 19:30 55% 60 km
Mo, 13.07. 19:00 46% >70 km
Mo, 13.07. 18:30 47% 55 km
Ortszeit Niederschlagsmenge Niederschlagsart
Mo, 13.07. 20:00 0.0 l/m2 in 12 Std. -
Mo, 13.07. 14:00 0.0 l/m2 in 6 Std. -
Mo, 13.07. 8:00 0.0 l/m2 in 12 Std. -
Mo, 13.07. 2:00 0.0 l/m2 in 6 Std. -
So, 12.07. 20:00 1 l/m2 in 12 Std. -
So, 12.07. 14:00 1 l/m2 in 6 Std. Schauer
So, 12.07. 8:00 0.0 l/m2 in 12 Std. -
So, 12.07. 2:00 0.0 l/m2 in 6 Std. -
Ortszeit Niederschlagsmenge Niederschlagsart
Mo, 13.07. 21:30 0.0 l/m2 in 1 Std. -
Mo, 13.07. 21:20 keine Meldung -
Mo, 13.07. 21:10 keine Meldung -
Mo, 13.07. 21:00 0.0 l/m2 in 1 Std. -
Mo, 13.07. 20:50 keine Meldung -
Mo, 13.07. 20:40 keine Meldung -
Mo, 13.07. 20:30 0.0 l/m2 in 1 Std. -
Mo, 13.07. 20:00 0.0 l/m2 in 1 Std. -
Mo, 13.07. 19:30 0.0 l/m2 in 1 Std. -
Mo, 13.07. 19:00 0.0 l/m2 in 1 Std. -
Mo, 13.07. 18:30 0.0 l/m2 in 1 Std. -
Ortszeit Stärke Spitze Richtung
km/h Bft. km/h Grad Sektor
Mo, 13.07. 20:00 11 2 32 350° N
Mo, 13.07. 14:00 20 4 33 290° W
Mo, 13.07. 8:00 11 2 17 270° W
Mo, 13.07. 2:00 7 2 - 270° W
So, 12.07. 20:00 18 3 43 280° W
So, 12.07. 14:00 22 4 43 280° W
So, 12.07. 8:00 9 2 17 260° W
So, 12.07. 2:00 9 2 30 240° SW
Ortszeit Stärke Spitze Richtung
km/h Bft. km/h Grad Sektor
Mo, 13.07. 21:30 4 1 7 70° O
Mo, 13.07. 21:20 4 1 - 70° O
Mo, 13.07. 21:10 4 1 - 360° N
Mo, 13.07. 21:00 6 1 19 320° NW
Mo, 13.07. 20:50 6 1 - 320° NW
Mo, 13.07. 20:40 7 2 - 330° NW
Mo, 13.07. 20:30 9 2 19 340° N
Mo, 13.07. 20:00 11 2 25 350° N
Mo, 13.07. 19:30 15 3 24 360° N
Mo, 13.07. 19:00 11 2 26 320° NW
Mo, 13.07. 18:30 11 2 25 270° W
Ortszeit Untergrenze Bedeckung Gattung
total tief tief mittel hoch
Mo, 13.07. 20:00 8100 m 5/8 0/8 - - Ci
Mo, 13.07. 14:00 1380 m 2/8 2/8 Cu - Ci
Mo, 13.07. 8:00 7800 m 1/8 0/8 - - Ci
Mo, 13.07. 2:00 1500 m 1/8 1/8 Sc - Ci
So, 12.07. 20:00 990 m 7/8 7/8 Cu - -
So, 12.07. 14:00 1140 m 6/8 3/8 Cu Ac -
So, 12.07. 8:00 2400 m 1/8 1/8 - Ac -
So, 12.07. 2:00 1800 m 1/8 1/8 Sc - -
Ortszeit Bedeckungsgrad in Achtel und Wolkenuntergrenze
Mo, 13.07. 21:30 5(6600m) 8(6900m) 8(9000m)
Mo, 13.07. 21:20 8(6600m) 8(7200m) 8(8700m)
Mo, 13.07. 21:10 8(6600m) 8(7200m) 8(9000m)
Mo, 13.07. 21:00 7(6900m) 8(8400m) 8(10500m)
Mo, 13.07. 20:50 8(6900m)
Mo, 13.07. 20:40 5(6900m) 7(7500m) 8(8400m)
Mo, 13.07. 20:30 6(7800m) 7(8400m) 8(9000m)
Mo, 13.07. 20:00 5(8100m) 4(10500m) 7(10500m)
Mo, 13.07. 19:30 1(1500m) 5(8100m) 7(10500m)
Mo, 13.07. 19:00 2(1500m) 4(9000m) 4(10500m)
Mo, 13.07. 18:30 2(1500m) 4(10500m) 6(10500m)
Ortszeit Luftdruck NN (hPa) Tendenz (hPa in 3 Std.)
Mo, 13.07. 20:00 1020 - 1,1
Mo, 13.07. 14:00 1023 - 1,2
Mo, 13.07. 8:00 1025 + 0,2
Mo, 13.07. 2:00 1025 - 0,2
So, 12.07. 20:00 1026 - 0,5
So, 12.07. 14:00 1026 - 0,1
So, 12.07. 8:00 1025 + 1,1
So, 12.07. 2:00 1024 + 0,2
Ortszeit Luftdruck NN (hPa) Tendenz (hPa in 3 Std.)
Mo, 13.07. 21:30 1020 - 0,6
Mo, 13.07. 21:20 1020 keine Meldung
Mo, 13.07. 21:10 1020 keine Meldung
Mo, 13.07. 21:00 1020 - 0,8
Mo, 13.07. 20:50 1020 keine Meldung
Mo, 13.07. 20:40 1020 keine Meldung
Mo, 13.07. 20:30 1020 - 1,0
Mo, 13.07. 20:00 1020 - 1,1
Mo, 13.07. 19:30 1020 - 1,5
Mo, 13.07. 19:00 1021 - 1,5
Mo, 13.07. 18:30 1021 - 1,4
Ortszeit Schneehöhe (cm)
Mo, 13.07. 20:00 0
Mo, 13.07. 14:00 0
Mo, 13.07. 8:00 0
Mo, 13.07. 2:00 0
So, 12.07. 20:00 0
So, 12.07. 14:00 0
So, 12.07. 8:00 0
So, 12.07. 2:00 0
Ortszeit Schneehöhe (cm)
Mo, 13.07. 21:30 -
Mo, 13.07. 21:20 -
Mo, 13.07. 21:10 -
Mo, 13.07. 21:00 -
Mo, 13.07. 20:50 -
Mo, 13.07. 20:40 -
Mo, 13.07. 20:30 -
Mo, 13.07. 20:00 0
Mo, 13.07. 19:30 -
Mo, 13.07. 19:00 -
Mo, 13.07. 18:30 -
Link zu dieser Seite / Seite empfehlen

Das Wetter in ...